createdAt,value
2022-09-10T00:02:20.720Z,80.80
2022-09-10T00:04:53.775Z,80.90
2022-09-10T00:07:20.809Z,81.00
2022-09-10T00:09:47.651Z,81.00
2022-09-10T00:12:21.735Z,81.20
2022-09-10T00:14:48.640Z,81.30
2022-09-10T00:17:21.731Z,81.40
2022-09-10T00:19:55.404Z,81.50
2022-09-10T00:22:35.760Z,81.30
2022-09-10T00:25:08.735Z,81.00
2022-09-10T00:27:42.750Z,81.00
2022-09-10T00:30:09.836Z,81.10
2022-09-10T00:32:44.731Z,81.00
2022-09-10T00:35:18.770Z,81.10
2022-09-10T00:37:46.755Z,81.00
2022-09-10T00:40:21.746Z,80.80
2022-09-10T00:42:48.631Z,80.70
2022-09-10T00:45:26.840Z,80.60
2022-09-10T00:47:56.666Z,80.50
2022-09-10T00:50:30.810Z,80.50
2022-09-10T00:53:01.088Z,80.70
2022-09-10T00:55:34.751Z,80.60
2022-09-10T00:58:02.905Z,80.40
2022-09-10T01:00:37.805Z,80.30
2022-09-10T01:03:06.446Z,80.40
2022-09-10T01:05:40.735Z,80.20
2022-09-10T01:08:12.192Z,80.00
2022-09-10T01:10:54.799Z,80.10
2022-09-10T01:13:29.820Z,80.00
2022-09-10T01:16:02.879Z,79.80
2022-09-10T01:18:42.022Z,80.10
2022-09-10T01:21:24.735Z,80.20
2022-09-10T01:24:16.811Z,80.40
2022-09-10T01:26:52.078Z,80.20
2022-09-10T01:29:45.851Z,79.80
2022-09-10T01:32:15.650Z,79.60
2022-09-10T01:34:52.752Z,79.30
2022-09-10T01:37:29.825Z,79.20
2022-09-10T01:39:57.851Z,79.20
2022-09-10T01:42:26.010Z,79.30
2022-09-10T01:45:00.791Z,79.20
2022-09-10T01:47:52.767Z,79.30
2022-09-10T01:50:25.763Z,79.40
2022-09-10T01:52:58.740Z,79.40
2022-09-10T01:55:37.745Z,79.40
2022-09-10T01:58:23.780Z,79.50
2022-09-10T02:00:55.585Z,79.50
2022-09-10T02:03:30.775Z,79.40
2022-09-10T02:06:04.730Z,79.30
2022-09-10T02:08:40.760Z,79.30
2022-09-10T02:11:10.565Z,79.30
2022-09-10T02:13:44.735Z,79.20
2022-09-10T02:16:13.045Z,79.40
2022-09-10T02:18:53.755Z,79.50
2022-09-10T02:21:33.791Z,79.50
2022-09-10T02:24:10.158Z,79.40
2022-09-10T02:26:45.731Z,79.20
2022-09-10T02:29:20.741Z,79.00
2022-09-10T02:31:47.786Z,79.00
2022-09-10T02:34:22.810Z,79.10
2022-09-10T02:36:49.730Z,79.10
2022-09-10T02:39:22.798Z,79.10
2022-09-10T02:41:55.818Z,79.00
2022-09-10T02:44:28.849Z,79.00
2022-09-10T02:47:02.819Z,79.10
2022-09-10T02:49:29.820Z,79.20
2022-09-10T02:52:02.841Z,79.40
2022-09-10T02:54:29.762Z,79.40
2022-09-10T02:57:03.779Z,79.50
2022-09-10T02:59:32.909Z,79.50
2022-09-10T03:02:06.915Z,79.40
2022-09-10T03:04:33.859Z,79.40
2022-09-10T03:07:01.259Z,79.40
2022-09-10T03:09:35.841Z,79.40
2022-09-10T03:12:09.799Z,79.30
2022-09-10T03:14:36.749Z,79.20
2022-09-10T03:17:10.811Z,79.00
2022-09-10T03:19:57.908Z,79.00
2022-09-10T03:22:31.831Z,78.90
2022-09-10T03:24:58.789Z,78.90
2022-09-10T03:27:26.330Z,78.80
2022-09-10T03:29:59.828Z,78.80
2022-09-10T03:32:26.751Z,78.60
2022-09-10T03:34:59.809Z,78.70
2022-09-10T03:37:33.820Z,78.50
2022-09-10T03:40:06.956Z,78.40
2022-09-10T03:42:40.899Z,78.10
2022-09-10T03:45:14.839Z,77.80
2022-09-10T03:47:48.793Z,77.90
2022-09-10T03:50:22.839Z,78.00
2022-09-10T03:52:50.479Z,77.60
2022-09-10T03:55:24.809Z,77.40
2022-09-10T03:57:51.699Z,77.40
2022-09-10T04:00:18.600Z,77.50
2022-09-10T04:02:53.808Z,77.40
2022-09-10T04:05:27.829Z,77.50
2022-09-10T04:07:56.519Z,77.30
2022-09-10T04:10:30.939Z,77.40
2022-09-10T04:13:04.850Z,77.50
2022-09-10T04:15:31.759Z,77.50
2022-09-10T04:18:04.836Z,77.50
2022-09-10T04:20:44.833Z,77.70
2022-09-10T04:23:17.818Z,77.90
2022-09-10T04:25:50.839Z,77.70
2022-09-10T04:28:17.850Z,77.60
2022-09-10T04:30:51.799Z,77.70
2022-09-10T04:33:18.729Z,77.60
2022-09-10T04:35:52.811Z,77.50
2022-09-10T04:38:19.709Z,77.60
2022-09-10T04:40:54.809Z,77.40
2022-09-10T04:43:21.799Z,77.50
2022-09-10T04:45:54.875Z,77.40
2022-09-10T04:48:31.882Z,77.30
2022-09-10T04:51:15.773Z,77.30
2022-09-10T04:53:49.845Z,77.20
2022-09-10T04:56:23.809Z,77.00
2022-09-10T04:58:50.769Z,77.30
2022-09-10T05:01:23.860Z,77.70
2022-09-10T05:03:50.930Z,77.80
2022-09-10T05:06:24.819Z,77.80
2022-09-10T05:08:51.740Z,77.40
2022-09-10T05:11:26.839Z,77.00
2022-09-10T05:13:54.162Z,76.90
2022-09-10T05:16:27.904Z,76.80
2022-09-10T05:18:54.989Z,77.00
2022-09-10T05:21:37.838Z,77.00
2022-09-10T05:24:11.580Z,77.20
2022-09-10T05:26:44.839Z,77.20
2022-09-10T05:29:11.950Z,77.10
2022-09-10T05:31:45.891Z,77.10
2022-09-10T05:34:12.773Z,77.10
2022-09-10T05:36:47.828Z,77.20
2022-09-10T05:39:15.828Z,77.40
2022-09-10T05:41:49.817Z,77.50
2022-09-10T05:44:17.736Z,77.50
2022-09-10T05:46:51.843Z,77.70
2022-09-10T05:49:18.706Z,77.90
2022-09-10T05:51:51.809Z,78.10
2022-09-10T05:54:18.697Z,78.20
2022-09-10T05:56:45.609Z,78.30
2022-09-10T05:59:18.807Z,78.50
2022-09-10T06:01:45.710Z,78.60
2022-09-10T06:04:18.833Z,78.70
2022-09-10T06:06:45.930Z,78.70
2022-09-10T06:09:19.830Z,78.60
2022-09-10T06:11:49.979Z,78.60
2022-09-10T06:14:23.858Z,78.40
2022-09-10T06:16:52.149Z,78.50
2022-09-10T06:19:26.878Z,78.80
2022-09-10T06:22:00.809Z,78.80
2022-09-10T06:24:34.011Z,78.90
2022-09-10T06:27:00.868Z,78.90
2022-09-10T06:29:35.879Z,79.00
2022-09-10T06:32:03.178Z,79.00
2022-09-10T06:34:36.838Z,79.00
2022-09-10T06:37:04.391Z,79.10
2022-09-10T06:39:31.256Z,79.10
2022-09-10T06:42:05.804Z,78.90
2022-09-10T06:44:33.052Z,78.90
2022-09-10T06:49:55.644Z,79.00
2022-09-10T06:52:28.817Z,78.90
2022-09-10T06:55:02.835Z,78.80
2022-09-10T06:57:29.715Z,78.80
2022-09-10T07:00:02.846Z,78.70
2022-09-10T07:02:37.856Z,78.50
2022-09-10T07:05:04.889Z,78.40
2022-09-10T07:07:37.839Z,78.40
2022-09-10T07:10:04.895Z,78.40
2022-09-10T07:12:39.964Z,78.30
2022-09-10T07:15:10.799Z,78.10
2022-09-10T07:17:46.351Z,77.90
2022-09-10T07:20:34.863Z,77.90
2022-09-10T07:23:11.082Z,77.80
2022-09-10T07:25:39.808Z,77.60
2022-09-10T07:28:13.899Z,77.40
2022-09-10T07:30:41.383Z,77.20
2022-09-10T07:33:08.718Z,77.00
2022-09-10T07:35:45.920Z,76.90
2022-09-10T07:38:23.909Z,76.60
2022-09-10T07:40:52.288Z,76.40
2022-09-10T07:43:25.864Z,76.30
2022-09-10T07:45:52.822Z,76.10
2022-09-10T07:48:25.862Z,76.10
2022-09-10T07:51:00.385Z,75.70
2022-09-10T07:53:33.914Z,75.70
2022-09-10T07:56:11.923Z,75.70
2022-09-10T07:58:39.726Z,75.50
2022-09-10T08:01:16.084Z,75.50
2022-09-10T08:03:43.006Z,75.50
2022-09-10T08:06:16.853Z,75.50
2022-09-10T08:08:43.718Z,75.50
2022-09-10T08:11:22.914Z,75.10
2022-09-10T08:13:50.793Z,75.00
2022-09-10T08:16:25.904Z,74.60
2022-09-10T08:18:55.704Z,74.40
2022-09-10T08:21:38.858Z,74.40
2022-09-10T08:24:11.968Z,74.20
2022-09-10T08:26:45.866Z,74.00
2022-09-10T08:29:12.728Z,73.80
2022-09-10T08:31:45.882Z,73.60
2022-09-10T08:34:13.888Z,73.30
2022-09-10T08:36:46.830Z,72.90
2022-09-10T08:39:14.068Z,72.60
2022-09-10T08:41:52.913Z,71.70
2022-09-10T08:44:29.282Z,71.30
2022-09-10T08:47:11.843Z,71.40
2022-09-10T08:49:54.888Z,71.00
2022-09-10T08:52:27.885Z,70.60
2022-09-10T08:55:05.034Z,70.20
2022-09-10T08:57:54.002Z,70.00
2022-09-10T09:00:23.221Z,70.00
2022-09-10T09:03:02.943Z,69.90
2022-09-10T09:05:35.544Z,69.90
2022-09-10T09:08:08.838Z,69.50
2022-09-10T09:10:53.883Z,69.00
2022-09-10T09:13:35.872Z,68.50
2022-09-10T09:16:11.524Z,68.20
2022-09-10T09:18:44.886Z,68.00
2022-09-10T09:21:38.925Z,67.80
2022-09-10T09:24:13.783Z,67.80
2022-09-10T09:26:48.905Z,67.90
2022-09-10T09:29:25.905Z,67.80
2022-09-10T09:31:54.480Z,67.50
2022-09-10T09:34:46.875Z,67.10
2022-09-10T09:37:31.908Z,66.90
2022-09-10T09:40:08.194Z,67.30
2022-09-10T09:42:44.923Z,67.30
2022-09-10T09:45:28.019Z,66.40
2022-09-10T09:48:02.924Z,65.70
2022-09-10T09:50:37.003Z,65.20
2022-09-10T09:53:04.026Z,64.90
2022-09-10T09:55:49.943Z,64.60
2022-09-10T09:58:28.004Z,64.40
2022-09-10T10:01:09.979Z,64.20
2022-09-10T10:04:04.923Z,64.10
2022-09-10T10:06:33.036Z,64.10
2022-09-10T10:09:07.881Z,64.30
2022-09-10T10:11:49.902Z,64.60
2022-09-10T10:14:26.006Z,65.00
2022-09-10T10:17:01.201Z,65.30
2022-09-10T10:19:31.446Z,65.90
2022-09-10T10:22:20.933Z,66.40
2022-09-10T10:24:48.906Z,67.10
2022-09-10T10:27:27.886Z,67.90
2022-09-10T10:29:59.586Z,68.40
2022-09-10T10:32:52.874Z,69.20
2022-09-10T10:35:20.611Z,70.50
2022-09-10T10:38:09.996Z,70.70
2022-09-10T10:40:49.985Z,71.00
2022-09-10T10:43:38.900Z,71.90
2022-09-10T10:46:17.927Z,71.40
2022-09-10T10:48:44.815Z,71.40
2022-09-10T10:51:26.114Z,70.70
2022-09-10T10:54:02.906Z,70.30
2022-09-10T10:56:37.426Z,69.00
2022-09-10T10:59:13.906Z,68.30
2022-09-10T11:01:42.749Z,67.90
2022-09-10T11:04:29.939Z,67.20
2022-09-10T11:07:10.637Z,66.70
2022-09-10T11:09:49.901Z,66.20
2022-09-10T11:12:31.897Z,65.90
2022-09-10T11:15:02.915Z,65.60
2022-09-10T11:17:40.925Z,65.00
2022-09-10T11:20:33.885Z,64.70
2022-09-10T11:23:13.903Z,64.70
2022-09-10T11:25:49.750Z,64.40
2022-09-10T11:28:41.087Z,63.80
2022-09-10T11:31:31.101Z,63.30
2022-09-10T11:34:07.875Z,62.60
2022-09-10T11:36:44.101Z,62.20
2022-09-10T11:39:36.960Z,61.60
2022-09-10T11:42:13.939Z,61.80
2022-09-10T11:44:52.928Z,60.70
2022-09-10T11:47:52.929Z,59.90
2022-09-10T11:50:51.940Z,59.40
2022-09-10T11:53:26.978Z,58.10
2022-09-10T11:56:00.056Z,57.70
2022-09-10T11:58:38.992Z,57.70
2022-09-10T12:01:21.039Z,57.00
2022-09-10T12:04:13.268Z,56.90
2022-09-10T12:06:52.439Z,56.60
2022-09-10T12:09:38.063Z,55.40
2022-09-10T12:12:14.388Z,54.80
2022-09-10T12:14:48.118Z,54.70
2022-09-10T12:17:25.048Z,54.70
2022-09-10T12:19:59.988Z,54.90
2022-09-10T12:22:39.229Z,55.20
2022-09-10T12:25:34.538Z,55.50
2022-09-10T12:28:03.510Z,56.10
2022-09-10T12:30:43.028Z,56.60
2022-09-10T12:33:13.037Z,57.10
2022-09-10T12:35:52.005Z,57.60
2022-09-10T12:38:37.599Z,58.00
2022-09-10T12:41:15.048Z,58.80
2022-09-10T12:43:42.163Z,59.30
2022-09-10T12:46:16.077Z,59.50
2022-09-10T12:48:54.039Z,59.60
2022-09-10T12:51:27.138Z,59.30
2022-09-10T12:54:02.957Z,59.10
2022-09-10T12:56:57.937Z,59.00
2022-09-10T12:59:43.553Z,58.80
2022-09-10T13:02:30.033Z,58.70
2022-09-10T13:05:02.121Z,58.70
2022-09-10T13:07:47.922Z,58.90
2022-09-10T13:10:22.110Z,59.20
2022-09-10T13:12:57.946Z,59.40
2022-09-10T13:15:26.164Z,59.50
2022-09-10T13:17:59.949Z,59.70
2022-09-10T13:20:46.958Z,59.90
2022-09-10T13:23:25.949Z,60.20
2022-09-10T13:25:58.970Z,60.70
2022-09-10T13:28:28.853Z,61.50
2022-09-10T13:31:08.016Z,62.60
2022-09-10T13:33:41.124Z,62.90
2022-09-10T13:36:28.911Z,62.70
2022-09-10T13:39:26.936Z,62.10
2022-09-10T13:41:57.034Z,61.20
2022-09-10T13:44:50.093Z,60.70
2022-09-10T13:47:25.990Z,60.20
2022-09-10T13:49:55.763Z,59.20
2022-09-10T13:52:35.933Z,58.60
2022-09-10T13:55:11.971Z,58.00
2022-09-10T13:57:43.787Z,57.50
2022-09-10T14:00:30.967Z,57.60
2022-09-10T14:03:07.926Z,57.80
2022-09-10T14:05:43.848Z,57.90
2022-09-10T14:08:29.937Z,58.20
2022-09-10T14:11:07.214Z,58.50
2022-09-10T14:13:46.971Z,58.70
2022-09-10T14:16:29.496Z,59.00
2022-09-10T14:19:05.987Z,59.40
2022-09-10T14:21:54.972Z,59.60
2022-09-10T14:24:45.994Z,59.60
2022-09-10T14:27:19.200Z,59.60
2022-09-10T14:29:52.933Z,60.30
2022-09-10T14:32:36.934Z,60.80
2022-09-10T14:35:23.033Z,61.50
2022-09-10T14:37:56.990Z,62.20
2022-09-10T14:40:23.901Z,62.90
2022-09-10T14:42:56.975Z,63.40
2022-09-10T14:45:40.628Z,63.80
2022-09-10T14:48:33.023Z,64.40
2022-09-10T14:51:10.785Z,64.90
2022-09-10T14:53:43.983Z,65.50
2022-09-10T14:56:23.091Z,66.10
2022-09-10T14:59:01.048Z,66.40
2022-09-10T15:01:28.114Z,66.80
2022-09-10T15:04:02.022Z,67.10
2022-09-10T15:06:28.905Z,67.00
2022-09-10T15:09:04.940Z,67.00
2022-09-10T15:11:31.901Z,66.90
2022-09-10T15:14:07.946Z,66.70
2022-09-10T15:16:35.427Z,66.80
2022-09-10T15:19:02.280Z,66.90
2022-09-10T15:21:35.996Z,67.10
2022-09-10T15:24:12.695Z,67.10
2022-09-10T15:26:46.036Z,67.30
2022-09-10T15:29:13.360Z,67.60
2022-09-10T15:31:40.347Z,67.60
2022-09-10T15:34:14.961Z,67.70
2022-09-10T15:36:48.968Z,67.80
2022-09-10T15:39:16.415Z,67.70
2022-09-10T15:41:43.787Z,67.70
2022-09-10T15:44:17.995Z,67.80
2022-09-10T15:46:45.522Z,67.90
2022-09-10T15:49:12.458Z,68.10
2022-09-10T15:51:45.963Z,68.20
2022-09-10T15:54:18.964Z,68.30
2022-09-10T15:56:45.844Z,68.40
2022-09-10T15:59:19.966Z,68.60
2022-09-10T16:01:47.036Z,68.60
2022-09-10T16:04:22.043Z,68.80
2022-09-10T16:06:48.989Z,68.80
2022-09-10T16:09:22.005Z,69.00
2022-09-10T16:11:57.038Z,69.10
2022-09-10T16:14:31.007Z,69.10
2022-09-10T16:16:58.544Z,69.20
2022-09-10T16:19:32.268Z,69.30
2022-09-10T16:22:06.341Z,69.30
2022-09-10T16:24:46.058Z,69.40
2022-09-10T16:27:13.038Z,69.40
2022-09-10T16:29:50.118Z,69.40
2022-09-10T16:32:24.143Z,69.50
2022-09-10T16:34:51.240Z,69.50
2022-09-10T16:37:25.140Z,69.60
2022-09-10T16:39:52.058Z,69.70
2022-09-10T16:42:19.318Z,69.80
2022-09-10T16:44:53.084Z,69.80
2022-09-10T16:47:20.599Z,69.80
2022-09-10T16:49:54.139Z,70.20
2022-09-10T16:52:21.080Z,70.10
2022-09-10T16:54:55.085Z,70.10
2022-09-10T16:57:29.139Z,70.10
2022-09-10T16:59:56.581Z,70.50
2022-09-10T17:02:30.107Z,70.60
2022-09-10T17:04:57.129Z,70.90
2022-09-10T17:07:31.149Z,71.40
2022-09-10T17:10:00.898Z,71.40
2022-09-10T17:12:35.046Z,71.50
2022-09-10T17:15:01.980Z,71.50
2022-09-10T17:17:35.080Z,72.00
2022-09-10T17:20:02.643Z,72.10
2022-09-10T17:22:43.091Z,72.30
2022-09-10T17:25:17.000Z,72.40
2022-09-10T17:27:50.100Z,72.70
2022-09-10T17:30:24.157Z,72.70
2022-09-10T17:32:52.705Z,72.70
2022-09-10T17:35:26.102Z,73.00
2022-09-10T17:38:00.060Z,73.10
2022-09-10T17:40:27.060Z,73.10
2022-09-10T17:43:02.072Z,73.40
2022-09-10T17:45:36.124Z,73.60
2022-09-10T17:48:03.070Z,73.50
2022-09-10T17:50:37.146Z,73.60
2022-09-10T17:53:04.100Z,73.70
2022-09-10T17:55:40.166Z,73.80
2022-09-10T17:58:07.113Z,73.80
2022-09-10T18:00:40.120Z,73.80
2022-09-10T18:03:10.131Z,74.00
2022-09-10T18:05:44.105Z,74.10
2022-09-10T18:08:18.004Z,74.10
2022-09-10T18:10:51.993Z,74.10
2022-09-10T18:13:19.676Z,73.90
2022-09-10T18:15:53.136Z,73.90
2022-09-10T18:18:20.070Z,74.00
2022-09-10T18:20:53.090Z,74.10
2022-09-10T18:23:34.051Z,74.10
2022-09-10T18:26:01.370Z,74.00
2022-09-10T18:28:35.100Z,74.10
2022-09-10T18:31:05.273Z,74.10
2022-09-10T18:33:45.110Z,74.10
2022-09-10T18:36:20.753Z,74.40
2022-09-10T18:38:54.102Z,74.50
2022-09-10T18:41:25.051Z,74.80
2022-09-10T18:44:00.076Z,74.90
2022-09-10T18:46:36.174Z,75.10
2022-09-10T18:49:10.070Z,75.00
2022-09-10T18:51:37.191Z,75.20
2022-09-10T18:54:12.030Z,75.20
2022-09-10T18:56:40.254Z,75.30
2022-09-10T18:59:16.159Z,75.30
2022-09-10T19:01:44.587Z,75.30
2022-09-10T19:04:20.181Z,75.30
2022-09-10T19:06:47.780Z,75.40
2022-09-10T19:09:23.120Z,75.50
2022-09-10T19:11:58.134Z,75.50
2022-09-10T19:14:33.040Z,75.40
2022-09-10T19:17:00.690Z,75.50
2022-09-10T19:19:35.037Z,75.60
2022-09-10T19:22:10.035Z,75.70
2022-09-10T19:24:58.450Z,75.80
2022-09-10T19:27:25.395Z,75.80
2022-09-10T19:30:00.259Z,75.80
2022-09-10T19:32:27.285Z,75.80
2022-09-10T19:35:02.182Z,75.80
2022-09-10T19:37:29.112Z,75.80
2022-09-10T19:40:04.141Z,75.90
2022-09-10T19:42:31.154Z,75.80
2022-09-10T19:45:09.949Z,75.90
2022-09-10T19:47:37.163Z,75.90
2022-09-10T19:50:12.103Z,75.90
2022-09-10T19:52:39.273Z,75.90
2022-09-10T19:55:13.053Z,75.90
2022-09-10T19:57:46.153Z,76.00
2022-09-10T20:00:43.156Z,76.00
2022-09-10T20:03:07.856Z,76.00
2022-09-10T20:05:41.068Z,75.90
2022-09-10T20:08:09.904Z,75.60
2022-09-10T20:10:44.063Z,75.60
2022-09-10T20:13:19.023Z,75.50
2022-09-10T20:15:46.534Z,75.50
2022-09-10T20:18:20.123Z,75.60
2022-09-10T20:21:07.053Z,75.60
2022-09-10T20:23:36.293Z,75.70
2022-09-10T20:26:21.113Z,75.70
2022-09-10T20:28:54.722Z,75.70
2022-09-10T20:31:29.104Z,75.60
2022-09-10T20:34:03.116Z,75.60
2022-09-10T20:36:31.665Z,75.40
2022-09-10T20:39:05.095Z,75.50
2022-09-10T20:41:38.128Z,75.40
2022-09-10T20:44:05.423Z,75.30
2022-09-10T20:46:39.128Z,75.30
2022-09-10T20:49:06.073Z,75.40
2022-09-10T20:51:43.163Z,75.30
2022-09-10T20:54:24.198Z,75.40
2022-09-10T20:56:58.173Z,75.20
2022-09-10T20:59:27.784Z,75.10
2022-09-10T21:01:56.841Z,75.10
2022-09-10T21:04:31.133Z,75.20
2022-09-10T21:06:58.567Z,75.20
2022-09-10T21:09:32.089Z,75.10
2022-09-10T21:11:59.153Z,75.20
2022-09-10T21:14:34.134Z,75.20
2022-09-10T21:17:01.321Z,75.10
2022-09-10T21:19:35.375Z,75.00
2022-09-10T21:22:22.952Z,74.90
2022-09-10T21:24:56.128Z,74.90
2022-09-10T21:27:31.199Z,74.90
2022-09-10T21:30:05.084Z,74.80
2022-09-10T21:32:31.938Z,74.70
2022-09-10T21:35:06.152Z,74.60
2022-09-10T21:37:39.073Z,74.70
2022-09-10T21:40:06.346Z,74.60
2022-09-10T21:42:40.119Z,74.50
2022-09-10T21:45:14.130Z,74.50
2022-09-10T21:47:41.357Z,74.50
2022-09-10T21:50:15.521Z,74.50
2022-09-10T21:52:49.056Z,74.50
2022-09-10T21:55:15.956Z,74.60
2022-09-10T21:57:50.076Z,74.60
2022-09-10T22:00:17.065Z,74.50
2022-09-10T22:02:51.076Z,74.40
2022-09-10T22:05:24.056Z,74.40
2022-09-10T22:07:58.061Z,74.40
2022-09-10T22:10:26.953Z,74.30
2022-09-10T22:13:00.119Z,74.30
2022-09-10T22:15:33.604Z,74.20
2022-09-10T22:18:07.069Z,74.20
2022-09-10T22:20:41.074Z,74.30
2022-09-10T22:23:21.094Z,74.30
2022-09-10T22:25:54.555Z,74.30
2022-09-10T22:28:28.685Z,74.30
2022-09-10T22:30:57.235Z,74.40
2022-09-10T22:33:31.101Z,74.50
2022-09-10T22:36:07.701Z,74.70
2022-09-10T22:38:41.227Z,75.00
2022-09-10T22:41:17.066Z,75.20
2022-09-10T22:43:43.926Z,75.30
2022-09-10T22:46:18.138Z,75.50
2022-09-10T22:48:46.331Z,75.70
2022-09-10T22:51:21.073Z,75.90
2022-09-10T22:53:55.069Z,75.80
2022-09-10T22:56:29.071Z,75.90
2022-09-10T22:58:56.935Z,76.10
2022-09-10T23:01:35.120Z,76.30
2022-09-10T23:04:02.281Z,76.60
2022-09-10T23:06:37.062Z,76.60
2022-09-10T23:09:08.463Z,76.80
2022-09-10T23:11:43.102Z,76.90
2022-09-10T23:14:22.088Z,76.90
2022-09-10T23:16:50.947Z,77.00
2022-09-10T23:19:26.145Z,77.00
2022-09-10T23:22:01.109Z,77.10
2022-09-10T23:24:34.390Z,77.20
2022-09-10T23:27:08.117Z,77.40
2022-09-10T23:29:42.091Z,77.50
2022-09-10T23:32:09.069Z,77.60
2022-09-10T23:34:42.134Z,77.80
2022-09-10T23:37:12.029Z,77.80
2022-09-10T23:39:46.110Z,77.90
2022-09-10T23:42:12.989Z,78.00
2022-09-10T23:44:46.084Z,78.20
2022-09-10T23:47:19.074Z,78.40
2022-09-10T23:49:52.067Z,78.50
2022-09-10T23:52:19.382Z,78.50
2022-09-10T23:54:53.097Z,78.40
2022-09-10T23:57:20.193Z,78.30
2022-09-10T23:59:53.184Z,78.20
